Time;durP1;ratioP1;P1;durP2;ratioP2;P2;SDS_P1;SDS_P2;PMS_P1;PMS_P2;Temp;Humidity;BMP_temperature;BMP_pressure;BME280_temperature;BME280_humidity;BME280_pressure;Samples;Min_cycle;Max_cycle;Signal;HPM_P1;HPM_P2
2021/01/16 00:00:52;;;;;;;4.05;2.03;;;6.00;99.90;;;;;;5095015;28;20051;-65
2021/01/16 00:03:20;;;;;;;4.53;1.83;;;6.00;99.90;;;;;;5094544;28;20056;-66
2021/01/16 00:05:49;;;;;;;6.18;2.15;;;6.00;99.90;;;;;;5078068;28;20059;-66
2021/01/16 00:08:22;;;;;;;4.32;1.52;;;5.90;99.90;;;;;;5095117;28;20040;-66
2021/01/16 00:10:52;;;;;;;6.90;2.80;;;6.00;99.90;;;;;;5077907;28;20036;-66
2021/01/16 00:13:25;;;;;;;8.75;2.65;;;6.00;99.90;;;;;;5095048;28;20503;-65
2021/01/16 00:15:54;;;;;;;4.72;2.30;;;6.00;99.90;;;;;;5094468;28;20048;-65
2021/01/16 00:18:23;;;;;;;7.47;2.75;;;6.00;99.90;;;;;;5095801;28;20449;-65
2021/01/16 00:20:53;;;;;;;5.47;2.33;;;5.90;99.90;;;;;;5094471;28;20052;-66
2021/01/16 00:23:25;;;;;;;5.00;2.30;;;5.90;99.90;;;;;;5095083;28;20115;-65
2021/01/16 00:25:54;;;;;;;4.20;1.85;;;5.90;99.90;;;;;;5077836;28;20131;-66
2021/01/16 00:28:23;;;;;;;4.35;1.73;;;5.90;99.90;;;;;;5095595;28;20048;-65
2021/01/16 00:30:51;;;;;;;7.55;3.05;;;5.80;99.90;;;;;;5094306;28;20068;-65
2021/01/16 00:33:30;;;;;;;7.10;3.17;;;5.80;99.90;;;;;;5095177;28;20798;-65
2021/01/16 00:35:59;;;;;;;6.70;1.83;;;5.70;99.90;;;;;;5095487;28;20418;-65
2021/01/16 00:38:36;;;;;;;6.03;2.42;;;5.70;99.90;;;;;;5094096;28;20518;-65
2021/01/16 00:41:03;;;;;;;8.88;2.47;;;5.70;99.90;;;;;;5095406;28;20139;-66
2021/01/16 00:43:31;;;;;;;6.80;2.58;;;5.60;99.90;;;;;;5094792;28;20056;-65
2021/01/16 00:45:59;;;;;;;15.45;2.67;;;5.60;99.90;;;;;;5095242;28;20105;-65
2021/01/16 00:48:26;;;;;;;7.60;2.33;;;5.50;99.90;;;;;;5095267;28;20044;-65
2021/01/16 00:50:58;;;;;;;6.50;3.05;;;5.60;99.90;;;;;;5077836;28;20040;-65
2021/01/16 00:53:35;;;;;;;9.82;3.53;;;5.50;99.90;;;;;;5094734;28;20097;-65
2021/01/16 00:56:10;;;;;;;9.00;3.47;;;5.50;99.90;;;;;;5093995;28;20135;-65
2021/01/16 00:59:05;;;;;;;6.57;3.90;;;5.50;99.90;;;;;;5095363;28;20056;-65
2021/01/16 01:01:45;;;;;;;9.35;2.30;;;5.50;99.90;;;;;;5094017;28;20469;-65
2021/01/16 01:04:13;;;;;;;4.78;2.78;;;5.50;99.90;;;;;;5094083;28;20491;-65
2021/01/16 01:06:44;;;;;;;5.20;2.92;;;5.40;99.90;;;;;;5095022;28;20139;-65
2021/01/16 01:09:11;;;;;;;5.53;2.83;;;5.30;99.90;;;;;;5077309;28;20060;-65
2021/01/16 01:11:39;;;;;;;6.68;3.67;;;5.30;99.90;;;;;;5076827;28;20044;-65
2021/01/16 01:14:06;;;;;;;10.15;3.47;;;5.30;99.90;;;;;;5094347;28;20058;-65
2021/01/16 01:16:36;;;;;;;9.70;4.00;;;5.20;99.90;;;;;;5094710;28;20503;-65
2021/01/16 01:19:03;;;;;;;7.80;2.88;;;5.30;99.90;;;;;;5093215;28;20055;-65
2021/01/16 01:21:31;;;;;;;10.20;3.40;;;5.30;99.90;;;;;;5093408;28;20048;-65
2021/01/16 01:24:01;;;;;;;7.07;2.92;;;5.40;99.90;;;;;;5093950;28;20067;-65
2021/01/16 01:26:30;;;;;;;7.60;3.33;;;5.40;99.90;;;;;;5094389;28;20044;-65
2021/01/16 01:28:58;;;;;;;8.30;2.85;;;5.40;99.90;;;;;;5094290;28;20040;-65
2021/01/16 01:31:27;;;;;;;6.40;3.63;;;5.50;99.90;;;;;;5094288;28;20131;-65
2021/01/16 01:33:55;;;;;;;6.25;2.60;;;5.50;99.90;;;;;;5093076;28;20063;-65
2021/01/16 01:36:22;;;;;;;6.63;3.47;;;5.50;99.90;;;;;;5094340;28;20063;-66
2021/01/16 01:38:50;;;;;;;9.88;3.88;;;5.50;99.90;;;;;;5092958;28;20047;-65
2021/01/16 01:41:20;;;;;;;10.43;4.53;;;5.50;99.90;;;;;;5093007;28;20048;-65
2021/01/16 01:43:51;;;;;;;7.20;3.58;;;5.60;99.90;;;;;;5093656;28;20170;-65
2021/01/16 01:46:21;;;;;;;4.53;2.72;;;5.70;99.90;;;;;;5092907;28;20130;-65
2021/01/16 01:48:53;;;;;;;7.70;3.03;;;5.70;99.90;;;;;;5093913;28;20139;-65
2021/01/16 01:51:23;;;;;;;6.57;3.47;;;5.70;99.90;;;;;;5093984;28;20064;-65
2021/01/16 01:53:55;;;;;;;8.80;3.28;;;5.70;99.90;;;;;;5092272;28;20058;-65
2021/01/16 01:56:25;;;;;;;8.07;3.08;;;5.80;99.90;;;;;;5094084;28;20044;-65
2021/01/16 01:58:54;;;;;;;5.85;2.97;;;5.80;99.90;;;;;;5092476;28;20052;-65
2021/01/16 02:01:27;;;;;;;8.63;3.65;;;5.80;99.90;;;;;;5092774;28;20052;-65
2021/01/16 02:03:56;;;;;;;7.53;2.55;;;5.80;99.90;;;;;;5092138;28;20044;-65
2021/01/16 02:06:26;;;;;;;9.30;3.70;;;5.70;99.90;;;;;;5075787;28;20055;-65
2021/01/16 02:08:57;;;;;;;6.72;3.05;;;5.70;99.90;;;;;;5092541;28;20503;-65
2021/01/16 02:11:25;;;;;;;8.75;4.22;;;5.70;99.90;;;;;;5093640;28;20142;-65
2021/01/16 02:13:52;;;;;;;6.53;3.28;;;5.80;99.90;;;;;;5093295;28;20517;-65
2021/01/16 02:16:50;;;;;;;5.97;3.15;;;5.70;99.90;;;;;;5092785;28;20044;-66
2021/01/16 02:19:44;;;;;;;6.28;3.25;;;5.70;99.90;;;;;;5088169;28;20055;-65
2021/01/16 02:22:14;;;;;;;6.03;2.78;;;5.80;99.90;;;;;;5088717;28;20047;-65
2021/01/16 02:24:55;;;;;;;6.30;2.83;;;5.80;99.90;;;;;;5075004;28;20101;-65
2021/01/16 02:28:05;;;;;;;9.20;3.75;;;5.80;99.90;;;;;;5092206;28;20044;-65
2021/01/16 02:30:38;;;;;;;10.15;2.65;;;5.80;99.90;;;;;;5092287;28;20125;-65
2021/01/16 02:33:12;;;;;;;6.90;3.00;;;5.80;99.90;;;;;;5092785;28;20117;-65
2021/01/16 02:36:02;;;;;;;9.23;3.42;;;5.80;99.90;;;;;;5093147;28;20518;-66
2021/01/16 02:38:46;;;;;;;7.60;3.75;;;5.80;99.90;;;;;;5084665;28;20458;-65
2021/01/16 02:41:53;;;;;;;8.05;2.65;;;5.80;99.90;;;;;;5072962;28;20059;-65
2021/01/16 02:44:34;;;;;;;7.68;3.20;;;5.80;99.90;;;;;;5072457;28;20041;-65
2021/01/16 02:47:09;;;;;;;4.70;2.47;;;5.80;99.90;;;;;;5071524;28;20072;-66
2021/01/16 02:49:45;;;;;;;4.47;2.42;;;5.80;99.90;;;;;;5071948;28;20056;-65
2021/01/16 02:52:20;;;;;;;3.97;2.35;;;5.80;99.90;;;;;;5071701;28;20059;-65
2021/01/16 02:54:49;;;;;;;5.85;3.13;;;5.70;99.90;;;;;;5071148;28;20056;-66
2021/01/16 02:57:19;;;;;;;8.07;2.85;;;5.70;99.90;;;;;;5072794;28;20048;-65
2021/01/16 02:59:47;;;;;;;4.50;2.35;;;5.70;99.90;;;;;;5072717;28;20044;-65
2021/01/16 03:02:18;;;;;;;11.95;2.90;;;5.70;99.90;;;;;;5071601;28;20056;-65
2021/01/16 03:04:50;;;;;;;10.88;2.50;;;5.70;99.90;;;;;;5072184;28;20036;-65
2021/01/16 03:07:21;;;;;;;6.60;3.03;;;5.80;99.90;;;;;;5072756;28;20062;-65
2021/01/16 03:09:49;;;;;;;8.00;3.50;;;5.80;99.90;;;;;;5072713;28;20051;-65
2021/01/16 03:12:17;;;;;;;7.45;3.85;;;5.70;99.90;;;;;;5072608;28;20075;-65
2021/01/16 03:14:51;;;;;;;6.60;3.00;;;5.70;99.90;;;;;;5071102;28;20048;-65
2021/01/16 03:17:22;;;;;;;4.38;2.60;;;5.60;99.90;;;;;;5072603;28;20110;-65
2021/01/16 03:19:50;;;;;;;5.45;2.53;;;5.70;99.90;;;;;;5055080;28;20052;-65
2021/01/16 03:22:28;;;;;;;9.77;3.90;;;5.70;99.90;;;;;;5072623;28;20048;-65
2021/01/16 03:24:57;;;;;;;7.03;2.92;;;5.60;99.90;;;;;;5071920;28;20106;-65
2021/01/16 03:27:26;;;;;;;5.70;3.25;;;5.70;99.90;;;;;;5073250;28;20044;-65
2021/01/16 03:29:54;;;;;;;5.18;2.75;;;5.70;99.90;;;;;;5081187;28;20117;-65
2021/01/16 03:32:21;;;;;;;5.10;2.95;;;5.70;99.90;;;;;;5096679;28;20044;-65
2021/01/16 03:34:54;;;;;;;9.20;3.28;;;5.80;99.90;;;;;;5096066;28;20415;-65
2021/01/16 03:37:22;;;;;;;8.35;3.80;;;5.70;99.90;;;;;;5095496;28;20056;-65
2021/01/16 03:39:50;;;;;;;5.00;2.47;;;5.70;99.90;;;;;;5095129;28;20052;-65
2021/01/16 03:42:20;;;;;;;6.78;2.78;;;5.70;99.90;;;;;;5096634;28;20063;-65
2021/01/16 03:44:48;;;;;;;8.77;2.78;;;5.70;99.90;;;;;;5095869;28;20048;-65
2021/01/16 03:47:18;;;;;;;5.70;2.78;;;5.70;99.90;;;;;;5095374;28;20051;-65
2021/01/16 03:49:46;;;;;;;6.93;3.10;;;5.80;99.90;;;;;;5096702;28;20384;-65
2021/01/16 03:52:38;;;;;;;3.95;2.03;;;5.80;99.90;;;;;;5078560;28;20064;-65
2021/01/16 03:55:08;;;;;;;7.95;3.03;;;5.90;99.90;;;;;;5095062;28;20048;-65
2021/01/16 03:57:36;;;;;;;5.53;2.17;;;5.80;99.90;;;;;;5096218;28;20052;-65
2021/01/16 04:00:09;;;;;;;5.03;1.90;;;5.90;99.90;;;;;;5096683;28;20057;-66
2021/01/16 04:02:37;;;;;;;4.25;2.03;;;6.00;99.90;;;;;;5094842;28;20134;-64
2021/01/16 04:05:06;;;;;;;2.35;0.95;;;6.00;99.90;;;;;;5094561;28;20572;-65
2021/01/16 04:07:36;;;;;;;2.92;1.10;;;6.20;99.90;;;;;;5078278;28;20503;-65
2021/01/16 04:10:05;;;;;;;3.90;1.00;;;6.30;99.90;;;;;;5095108;28;20048;-65
2021/01/16 04:12:32;;;;;;;1.60;0.90;;;6.40;99.90;;;;;;5094772;28;20453;-65
2021/01/16 04:15:01;;;;;;;5.35;1.00;;;6.60;99.90;;;;;;5094346;28;20465;-65
2021/01/16 04:17:30;;;;;;;4.55;1.05;;;6.70;99.90;;;;;;5095890;28;20052;-65
2021/01/16 04:19:58;;;;;;;2.78;1.75;;;6.80;99.90;;;;;;5096103;28;20059;-65
2021/01/16 04:22:25;;;;;;;2.72;1.05;;;6.80;99.90;;;;;;5094762;28;20499;-65
2021/01/16 04:24:52;;;;;;;2.30;0.82;;;6.80;99.90;;;;;;5095061;28;20040;-65
2021/01/16 04:27:20;;;;;;;7.53;0.80;;;6.80;99.90;;;;;;5095552;28;20047;-65
2021/01/16 04:29:48;;;;;;;4.57;0.73;;;6.80;99.90;;;;;;5095503;28;20040;-65
2021/01/16 04:32:15;;;;;;;2.47;0.80;;;6.80;99.90;;;;;;5094369;28;20036;-65
2021/01/16 04:34:43;;;;;;;5.45;0.93;;;6.80;99.90;;;;;;5095247;28;20131;-65
2021/01/16 04:37:10;;;;;;;2.25;0.85;;;6.80;99.90;;;;;;5094070;28;20454;-65
2021/01/16 04:39:38;;;;;;;4.22;1.40;;;6.80;99.90;;;;;;5093037;28;20048;-65
2021/01/16 04:42:08;;;;;;;1.67;1.00;;;6.80;99.90;;;;;;5095364;28;20532;-65
2021/01/16 04:44:36;;;;;;;2.85;0.95;;;6.80;99.90;;;;;;5095030;28;20419;-65
2021/01/16 04:47:06;;;;;;;2.40;0.82;;;6.80;99.90;;;;;;5077262;28;20054;-65
2021/01/16 04:49:36;;;;;;;7.72;1.65;;;6.70;99.90;;;;;;5095809;28;20127;-65
2021/01/16 04:52:06;;;;;;;2.67;0.93;;;6.70;99.90;;;;;;5094171;28;20048;-65
2021/01/16 04:54:35;;;;;;;7.00;0.93;;;6.70;99.90;;;;;;5093499;28;20510;-65
2021/01/16 04:57:04;;;;;;;1.42;0.60;;;6.70;99.90;;;;;;5093840;28;20564;-65
2021/01/16 04:59:34;;;;;;;5.15;1.90;;;6.70;99.90;;;;;;5095075;28;20059;-65
2021/01/16 05:02:12;;;;;;;2.30;0.73;;;6.70;99.90;;;;;;5093966;28;20052;-65
2021/01/16 05:04:40;;;;;;;4.18;1.33;;;6.70;99.90;;;;;;5093625;28;20570;-65
2021/01/16 05:07:09;;;;;;;7.47;1.30;;;6.70;99.90;;;;;;5093570;28;20067;-65
2021/01/16 05:09:41;;;;;;;6.93;0.93;;;6.70;99.90;;;;;;5093671;28;20105;-65
2021/01/16 05:12:30;;;;;;;4.93;1.08;;;6.80;99.90;;;;;;5076936;28;20048;-65
2021/01/16 05:15:07;;;;;;;4.75;0.90;;;6.80;99.90;;;;;;5094190;28;20052;-65
2021/01/16 05:17:45;;;;;;;3.72;1.88;;;6.80;99.90;;;;;;5092638;28;20056;-65
2021/01/16 05:20:13;;;;;;;7.63;0.77;;;6.80;99.90;;;;;;5093514;28;20070;-65
2021/01/16 05:22:40;;;;;;;1.70;0.77;;;6.90;99.90;;;;;;5093668;28;20052;-64
2021/01/16 05:25:08;;;;;;;4.35;0.80;;;6.90;99.90;;;;;;5092316;28;20052;-65
2021/01/16 05:27:37;;;;;;;6.22;0.80;;;6.90;99.90;;;;;;5092528;28;20503;-65
2021/01/16 05:30:09;;;;;;;4.07;1.02;;;6.90;99.90;;;;;;5094397;28;20099;-65
2021/01/16 05:32:41;;;;;;;4.82;1.23;;;6.90;99.90;;;;;;5093056;28;20040;-64
2021/01/16 05:35:21;;;;;;;3.72;1.00;;;6.90;99.90;;;;;;5094079;28;20059;-65
2021/01/16 05:37:54;;;;;;;4.75;0.75;;;6.90;99.90;;;;;;5089900;28;20064;-65
2021/01/16 05:40:22;;;;;;;7.15;0.82;;;6.90;99.90;;;;;;5076952;28;20056;-65
2021/01/16 05:42:51;;;;;;;4.82;1.35;;;6.80;99.90;;;;;;5073641;28;20518;-65
2021/01/16 05:45:23;;;;;;;3.33;0.98;;;6.80;99.90;;;;;;5072655;28;20036;-65
2021/01/16 05:47:51;;;;;;;4.15;0.90;;;6.80;99.90;;;;;;5056177;28;20086;-65
2021/01/16 05:50:25;;;;;;;9.82;3.25;;;6.80;99.70;;;;;;5072575;28;20090;-65
2021/01/16 05:52:52;;;;;;;1.73;1.27;;;6.70;99.80;;;;;;5073576;28;20049;-64
2021/01/16 05:55:21;;;;;;;3.92;1.48;;;6.70;99.60;;;;;;5087011;28;20044;-65
2021/01/16 05:58:07;;;;;;;1.70;0.65;;;6.60;99.60;;;;;;5089102;28;20051;-64
2021/01/16 06:00:39;;;;;;;8.05;1.77;;;6.60;99.60;;;;;;5089307;28;20549;-65
2021/01/16 06:03:14;;;;;;;1.65;0.75;;;6.60;99.80;;;;;;5072972;28;20095;-64
2021/01/16 06:05:54;;;;;;;6.00;1.15;;;6.50;99.50;;;;;;5073336;28;20045;-65
2021/01/16 06:08:30;;;;;;;2.08;1.05;;;6.60;99.30;;;;;;5088119;28;20040;-64
2021/01/16 06:10:57;;;;;;;4.57;0.73;;;6.60;99.10;;;;;;5073281;28;20072;-64
2021/01/16 06:13:34;;;;;;;3.30;1.00;;;6.60;99.30;;;;;;5088423;28;20050;-65
2021/01/16 06:16:12;;;;;;;6.78;1.08;;;6.60;99.30;;;;;;5073184;28;20070;-64
2021/01/16 06:18:51;;;;;;;4.78;0.55;;;6.50;99.30;;;;;;5089026;28;20048;-65
2021/01/16 06:21:29;;;;;;;2.30;1.00;;;6.60;99.00;;;;;;5072273;28;20048;-65
2021/01/16 06:24:01;;;;;;;3.92;1.25;;;6.60;99.20;;;;;;5072449;28;20044;-65
2021/01/16 06:26:28;;;;;;;1.67;0.63;;;6.70;98.70;;;;;;5088877;28;20048;-65
2021/01/16 06:29:03;;;;;;;3.78;0.68;;;6.70;98.40;;;;;;5087302;28;20461;-65
2021/01/16 06:31:35;;;;;;;4.25;1.05;;;6.70;98.40;;;;;;5091691;28;20040;-65
2021/01/16 06:34:09;;;;;;;1.27;0.60;;;6.70;98.20;;;;;;5093093;28;20491;-65
2021/01/16 06:36:38;;;;;;;7.00;0.93;;;6.80;98.10;;;;;;5093349;28;20415;-65
2021/01/16 06:39:10;;;;;;;8.07;0.82;;;6.70;98.40;;;;;;5092976;28;20052;-65
2021/01/16 06:41:45;;;;;;;5.30;0.65;;;6.70;98.10;;;;;;5093286;28;20064;-65
2021/01/16 06:44:16;;;;;;;4.43;1.23;;;6.70;97.90;;;;;;5091590;28;20128;-64
2021/01/16 06:46:50;;;;;;;3.95;1.10;;;6.70;98.00;;;;;;5091928;28;20136;-65
2021/01/16 06:49:24;;;;;;;2.22;1.13;;;6.70;98.00;;;;;;5093495;28;20490;-65
2021/01/16 06:51:53;;;;;;;1.33;0.40;;;6.80;98.00;;;;;;5075504;28;20048;-65
2021/01/16 06:54:26;;;;;;;2.33;1.25;;;6.80;98.00;;;;;;5092519;28;20044;-65
2021/01/16 06:57:13;;;;;;;2.30;1.10;;;6.90;97.30;;;;;;5091782;28;20506;-65
2021/01/16 06:59:43;;;;;;;2.75;1.25;;;7.00;97.30;;;;;;5091802;28;20090;-65
2021/01/16 07:02:39;;;;;;;4.43;1.25;;;7.10;97.60;;;;;;5091116;28;20513;-65
2021/01/16 07:05:16;;;;;;;4.10;1.63;;;7.30;97.20;;;;;;5075354;28;20052;-65
2021/01/16 07:07:47;;;;;;;2.45;0.95;;;7.40;97.00;;;;;;5092921;28;20048;-65
2021/01/16 07:10:30;;;;;;;5.93;1.15;;;7.40;97.10;;;;;;5092842;28;20058;-65
2021/01/16 07:13:00;;;;;;;5.45;1.15;;;7.40;97.30;;;;;;5092370;28;20040;-65
2021/01/16 07:15:30;;;;;;;2.88;1.02;;;7.40;97.30;;;;;;5091682;28;20052;-64
2021/01/16 07:18:02;;;;;;;4.07;0.73;;;7.50;96.70;;;;;;5074974;28;20051;-64
2021/01/16 07:20:30;;;;;;;5.28;0.65;;;7.50;96.80;;;;;;5091912;28;20253;-65
2021/01/16 07:23:04;;;;;;;2.72;0.70;;;7.40;96.80;;;;;;5091448;28;20052;-65
2021/01/16 07:25:44;;;;;;;6.07;1.77;;;7.30;97.10;;;;;;5092545;28;20056;-65
2021/01/16 07:28:14;;;;;;;1.98;0.55;;;7.30;96.90;;;;;;5091574;28;20407;-65
2021/01/16 07:30:46;;;;;;;3.10;0.98;;;7.20;97.10;;;;;;5091379;28;20071;-65
2021/01/16 07:33:15;;;;;;;1.75;0.70;;;7.20;96.90;;;;;;5092232;28;20040;-65
2021/01/16 07:35:51;;;;;;;3.67;0.90;;;7.30;97.00;;;;;;5092566;28;20098;-65
2021/01/16 07:38:19;;;;;;;4.15;1.10;;;7.20;96.60;;;;;;5092378;28;20055;-64
2021/01/16 07:40:48;;;;;;;3.10;1.05;;;7.10;97.10;;;;;;5091343;28;20044;-65
2021/01/16 07:43:35;;;;;;;2.08;0.73;;;7.20;97.20;;;;;;5091006;28;20051;-65
2021/01/16 07:46:09;;;;;;;2.08;0.73;;;7.20;96.70;;;;;;5075096;28;20054;-64
2021/01/16 07:48:50;;;;;;;3.22;1.08;;;7.20;96.80;;;;;;5092468;28;20503;-64
2021/01/16 07:51:18;;;;;;;1.13;0.82;;;7.40;97.20;;;;;;5091568;28;20048;-64
2021/01/16 07:53:46;;;;;;;4.13;1.33;;;7.60;97.00;;;;;;5092104;28;20153;-64
2021/01/16 07:56:23;;;;;;;5.45;1.05;;;7.70;96.40;;;;;;5092563;28;20139;-65
2021/01/16 07:59:19;;;;;;;18.67;1.88;;;7.70;96.10;;;;;;5092301;28;20059;-65
2021/01/16 08:02:15;;;;;;;3.20;0.50;;;7.60;95.90;;;;;;5092074;28;20048;-65
2021/01/16 08:04:54;;;;;;;2.38;1.13;;;7.50;96.20;;;;;;5091786;28;20044;-65
2021/01/16 08:07:55;;;;;;;4.65;1.60;;;7.70;96.90;;;;;;5091201;28;20052;-65
2021/01/16 08:10:24;;;;;;;6.57;0.73;;;7.70;96.40;;;;;;5091217;28;20040;-64
2021/01/16 08:13:02;;;;;;;2.33;0.45;;;7.60;97.00;;;;;;5090735;28;20089;-65
2021/01/16 08:15:30;;;;;;;2.15;0.90;;;7.60;96.40;;;;;;5093373;28;20058;-66
2021/01/16 08:18:03;;;;;;;5.97;1.27;;;7.70;96.00;;;;;;5095709;28;20161;-65
2021/01/16 08:20:47;;;;;;;3.10;0.75;;;7.70;96.20;;;;;;5094515;28;20044;-65
2021/01/16 08:23:25;;;;;;;5.53;2.45;;;7.90;96.10;;;;;;5094796;28;20075;-65
2021/01/16 08:26:06;;;;;;;2.08;0.57;;;8.10;95.80;;;;;;5094633;28;20044;-65
2021/01/16 08:28:36;;;;;;;6.97;1.42;;;8.10;95.80;;;;;;5095703;28;20048;-65
2021/01/16 08:31:06;;;;;;;8.30;2.05;;;8.00;95.40;;;;;;5095505;28;20073;-65
2021/01/16 08:33:35;;;;;;;6.55;1.08;;;7.90;95.90;;;;;;5093940;28;20067;-65
2021/01/16 08:36:38;;;;;;;18.20;0.95;;;7.90;95.90;;;;;;5094336;28;20065;-65
2021/01/16 08:39:32;;;;;;;3.38;0.80;;;7.60;95.50;;;;;;5074053;28;20044;-65
2021/01/16 08:42:07;;;;;;;2.47;0.80;;;7.60;94.90;;;;;;5073215;28;20052;-65
2021/01/16 08:44:52;;;;;;;14.07;1.10;;;7.60;95.20;;;;;;5074787;28;20066;-65
2021/01/16 08:47:20;;;;;;;4.97;1.15;;;7.80;95.10;;;;;;5074031;28;20465;-65
2021/01/16 08:49:51;;;;;;;6.05;1.25;;;7.80;95.10;;;;;;5073882;28;20487;-65
2021/01/16 08:52:34;;;;;;;1.40;0.88;;;7.80;95.00;;;;;;5073819;28;20054;-65
2021/01/16 08:55:04;;;;;;;7.85;0.80;;;7.50;93.90;;;;;;5072889;28;20064;-65
2021/01/16 08:57:37;;;;;;;3.45;0.77;;;7.70;94.40;;;;;;5075067;28;20048;-65
2021/01/16 09:00:21;;;;;;;2.88;0.88;;;7.80;93.60;;;;;;5075155;28;20388;-64
2021/01/16 09:03:18;;;;;;;2.65;0.65;;;7.80;93.50;;;;;;5074343;28;20079;-65
2021/01/16 09:06:01;;;;;;;5.35;1.13;;;7.90;93.80;;;;;;5073178;28;20044;-65
2021/01/16 09:08:29;;;;;;;7.93;0.82;;;8.10;92.90;;;;;;5075051;28;20049;-65
2021/01/16 09:11:23;;;;;;;3.75;1.33;;;8.20;92.70;;;;;;5073865;28;20135;-65
2021/01/16 09:13:51;;;;;;;3.05;1.05;;;8.20;92.90;;;;;;5071969;28;20049;-65
2021/01/16 09:16:30;;;;;;;3.20;0.93;;;8.20;92.60;;;;;;5073148;28;20074;-65
2021/01/16 09:19:00;;;;;;;13.55;2.33;;;8.10;92.00;;;;;;5074334;28;20052;-65
2021/01/16 09:21:31;;;;;;;4.25;0.80;;;8.10;92.00;;;;;;5056968;28;20059;-65
2021/01/16 09:24:02;;;;;;;4.15;0.98;;;8.20;92.60;;;;;;5073777;28;20045;-65
2021/01/16 09:26:35;;;;;;;2.53;0.75;;;8.30;92.70;;;;;;5073568;28;20048;-65
2021/01/16 09:29:06;;;;;;;2.22;0.55;;;8.30;92.00;;;;;;5072156;28;20504;-65
2021/01/16 09:31:45;;;;;;;3.47;0.60;;;7.80;92.20;;;;;;5091457;28;20047;-64
2021/01/16 09:34:20;;;;;;;1.48;0.50;;;7.80;92.30;;;;;;5093892;28;20158;-65
2021/01/16 09:36:55;;;;;;;4.82;0.70;;;7.90;92.10;;;;;;5093869;28;20082;-65
2021/01/16 09:39:27;;;;;;;0.95;0.60;;;8.00;91.50;;;;;;5092929;28;20469;-65
2021/01/16 09:42:21;;;;;;;2.08;0.82;;;8.10;91.90;;;;;;5091367;28;20054;-65
2021/01/16 09:44:57;;;;;;;3.42;1.00;;;8.20;92.00;;;;;;5093808;28;20452;-66
2021/01/16 09:47:28;;;;;;;4.68;1.08;;;8.50;92.00;;;;;;5092688;28;20048;-65
2021/01/16 09:50:02;;;;;;;3.95;0.70;;;8.50;91.40;;;;;;5074199;28;20403;-65
2021/01/16 09:53:04;;;;;;;1.35;0.45;;;8.30;90.50;;;;;;5093625;28;20496;-61
2021/01/16 09:55:39;;;;;;;3.83;0.80;;;8.30;90.90;;;;;;5092201;28;20055;-65
2021/01/16 09:58:32;;;;;;;1.13;0.50;;;8.30;91.00;;;;;;5093069;28;20495;-65
2021/01/16 10:01:23;;;;;;;3.63;0.80;;;8.30;91.00;;;;;;5093888;28;20055;-65
2021/01/16 10:03:52;;;;;;;2.30;0.55;;;8.30;90.20;;;;;;5092385;28;20051;-65
2021/01/16 10:06:20;;;;;;;1.13;0.50;;;8.30;90.60;;;;;;5076023;28;20051;-65
2021/01/16 10:08:54;;;;;;;3.42;0.90;;;8.50;91.40;;;;;;5093914;28;20043;-65
2021/01/16 10:11:53;;;;;;;2.08;0.65;;;8.50;90.20;;;;;;5092742;28;20040;-65
2021/01/16 10:14:21;;;;;;;3.85;0.90;;;8.20;89.40;;;;;;5091861;28;20130;-65
2021/01/16 10:16:52;;;;;;;2.35;0.88;;;8.10;89.30;;;;;;5092350;28;20105;-65
2021/01/16 10:19:21;;;;;;;3.33;0.93;;;8.20;90.20;;;;;;5093081;28;20495;-65
2021/01/16 10:21:55;;;;;;;2.22;0.35;;;8.50;91.20;;;;;;5092537;28;20047;-65
2021/01/16 10:24:26;;;;;;;2.97;0.82;;;8.40;90.00;;;;;;5092733;28;20484;-65
2021/01/16 10:26:54;;;;;;;5.25;0.80;;;8.20;90.50;;;;;;5091262;28;20048;-64
2021/01/16 10:29:40;;;;;;;1.42;0.68;;;8.40;90.90;;;;;;5093306;28;20056;-65
2021/01/16 10:32:21;;;;;;;1.48;0.47;;;8.30;90.10;;;;;;5093447;28;20048;-65
2021/01/16 10:34:50;;;;;;;2.80;0.38;;;8.30;89.90;;;;;;5091614;28;20082;-65
2021/01/16 10:37:23;;;;;;;1.23;0.32;;;8.20;89.50;;;;;;5075083;28;20605;-65
2021/01/16 10:39:51;;;;;;;6.55;1.35;;;8.40;90.60;;;;;;5073878;28;20397;-65
2021/01/16 10:42:19;;;;;;;2.33;0.80;;;8.50;90.50;;;;;;5071496;28;20075;-65
2021/01/16 10:44:46;;;;;;;2.92;0.68;;;8.50;89.40;;;;;;5079368;28;20131;-64
2021/01/16 10:47:35;;;;;;;2.65;0.60;;;8.40;90.10;;;;;;5074861;28;20396;-65
2021/01/16 10:50:29;;;;;;;2.75;0.50;;;8.40;89.70;;;;;;5092661;28;20571;-65
2021/01/16 10:53:05;;;;;;;1.02;0.50;;;8.50;90.70;;;;;;5090052;28;20051;-65
2021/01/16 10:55:51;;;;;;;6.93;1.00;;;8.50;88.20;;;;;;5091914;28;20052;-64
2021/01/16 10:58:26;;;;;;;1.65;0.93;;;8.50;87.20;;;;;;5089331;28;20461;-63
2021/01/16 11:00:59;;;;;;;3.15;0.75;;;8.60;89.30;;;;;;5091684;28;20045;-65
2021/01/16 11:03:30;;;;;;;5.15;1.70;;;8.50;89.40;;;;;;5091037;28;20051;-65
2021/01/16 11:06:08;;;;;;;3.22;0.80;;;8.80;88.90;;;;;;5093091;28;20055;-65
2021/01/16 11:08:37;;;;;;;2.28;0.60;;;8.70;89.10;;;;;;5092852;28;20055;-65
2021/01/16 11:11:24;;;;;;;7.38;0.68;;;9.00;90.60;;;;;;5092002;28;20131;-65
2021/01/16 11:13:52;;;;;;;2.22;0.50;;;9.10;90.10;;;;;;5092381;28;20098;-65
2021/01/16 11:16:22;;;;;;;2.78;0.73;;;8.60;88.80;;;;;;5093190;28;20233;-65
2021/01/16 11:18:51;;;;;;;1.02;0.35;;;8.50;90.30;;;;;;5092753;28;20056;-65
2021/01/16 11:21:39;;;;;;;4.90;0.93;;;8.40;90.10;;;;;;5092671;28;20078;-65
2021/01/16 11:24:45;;;;;;;7.78;1.65;;;8.60;91.10;;;;;;5091263;28;20522;-65
2021/01/16 11:27:17;;;;;;;1.65;0.60;;;8.80;90.90;;;;;;5075046;28;20052;-65
2021/01/16 11:29:48;;;;;;;4.10;0.80;;;8.50;90.30;;;;;;5092815;28;20085;-65
2021/01/16 11:32:22;;;;;;;10.32;1.02;;;8.20;90.60;;;;;;5093079;28;20055;-65
2021/01/16 11:35:02;;;;;;;2.55;0.63;;;8.20;90.60;;;;;;5091514;28;20083;-65
2021/01/16 11:37:51;;;;;;;4.95;0.75;;;8.00;91.10;;;;;;5088065;28;20044;-65
2021/01/16 11:40:25;;;;;;;1.30;0.60;;;7.80;90.50;;;;;;5077601;28;20067;-66
2021/01/16 11:42:59;;;;;;;1.83;0.40;;;7.80;91.30;;;;;;5070885;28;20049;-65
2021/01/16 11:45:27;;;;;;;3.00;0.88;;;7.90;90.50;;;;;;5054620;28;20407;-66
2021/01/16 11:47:57;;;;;;;3.55;0.57;;;8.00;90.40;;;;;;5072335;28;20049;-65
2021/01/16 11:50:30;;;;;;;3.50;1.00;;;8.30;90.40;;;;;;5076113;28;20076;-65
2021/01/16 11:53:10;;;;;;;1.13;0.70;;;8.30;90.00;;;;;;5074452;28;20045;-66
2021/01/16 11:55:39;;;;;;;2.17;0.50;;;8.30;89.40;;;;;;5076138;28;20048;-65
2021/01/16 11:58:10;;;;;;;3.30;0.77;;;8.10;90.00;;;;;;5058628;28;20045;-65
2021/01/16 12:00:43;;;;;;;1.52;0.52;;;8.20;90.20;;;;;;5074886;28;20496;-65
2021/01/16 12:03:16;;;;;;;1.17;0.50;;;8.30;90.00;;;;;;5075475;28;20055;-65
2021/01/16 12:05:51;;;;;;;3.05;0.50;;;8.40;89.70;;;;;;5058644;28;20048;-65
2021/01/16 12:08:22;;;;;;;1.67;0.50;;;8.30;90.00;;;;;;5075664;28;20057;-65
2021/01/16 12:10:51;;;;;;;1.95;0.60;;;8.50;90.00;;;;;;5074469;28;20072;-66
2021/01/16 12:13:18;;;;;;;2.45;0.47;;;8.70;89.30;;;;;;5075216;28;20052;-65
2021/01/16 12:15:46;;;;;;;1.00;0.43;;;8.70;87.80;;;;;;5075386;28;20056;-65
2021/01/16 12:18:16;;;;;;;6.45;0.65;;;8.50;87.70;;;;;;5075575;28;20045;-65
2021/01/16 12:20:45;;;;;;;2.30;0.70;;;8.30;88.60;;;;;;5074954;28;20078;-65
2021/01/16 12:23:21;;;;;;;5.00;0.70;;;8.20;89.40;;;;;;5075182;28;20053;-65
2021/01/16 12:25:52;;;;;;;1.20;0.57;;;8.60;90.40;;;;;;5075300;28;20044;-65
2021/01/16 12:28:29;;;;;;;4.18;2.17;;;8.60;89.00;;;;;;5075423;28;20068;-65
2021/01/16 12:30:57;;;;;;;1.58;0.60;;;8.60;90.00;;;;;;5088893;28;20499;-65
2021/01/16 12:33:29;;;;;;;1.65;0.40;;;8.40;89.90;;;;;;5093912;28;20063;-65
2021/01/16 12:36:09;;;;;;;5.72;1.23;;;8.10;89.40;;;;;;5094433;28;20044;-64
2021/01/16 12:38:46;;;;;;;1.50;0.52;;;8.10;90.50;;;;;;5095514;28;20067;-65
2021/01/16 12:41:25;;;;;;;2.80;1.13;;;8.10;90.40;;;;;;5094269;28;20503;-66
2021/01/16 12:43:54;;;;;;;1.52;0.47;;;8.00;90.70;;;;;;5094885;28;20415;-65
2021/01/16 12:46:24;;;;;;;2.85;0.75;;;8.10;90.80;;;;;;5094202;28;20211;-62
2021/01/16 12:48:53;;;;;;;4.03;0.60;;;8.30;90.50;;;;;;5094065;28;20048;-65
2021/01/16 12:51:26;;;;;;;1.45;0.55;;;8.40;90.10;;;;;;5094066;28;20047;-65
2021/01/16 12:53:54;;;;;;;3.60;1.45;;;8.20;90.30;;;;;;5094807;28;20054;-64
2021/01/16 12:56:28;;;;;;;3.67;0.55;;;8.00;91.00;;;;;;5095185;28;20083;-65
2021/01/16 12:58:59;;;;;;;4.68;0.47;;;7.70;91.10;;;;;;5095020;28;20052;-65
2021/01/16 13:01:29;;;;;;;4.38;0.68;;;7.50;91.50;;;;;;5093304;28;20036;-65
2021/01/16 13:03:59;;;;;;;2.40;0.93;;;7.30;92.60;;;;;;5093454;28;20052;-65
2021/01/16 13:06:30;;;;;;;1.92;0.68;;;7.10;94.20;;;;;;5094251;28;20123;-65
2021/01/16 13:09:01;;;;;;;3.45;0.70;;;6.60;96.30;;;;;;5094231;28;20044;-65
2021/01/16 13:11:32;;;;;;;1.27;0.52;;;6.30;99.10;;;;;;5094643;28;20048;-64
2021/01/16 13:14:03;;;;;;;3.45;0.50;;;5.90;99.90;;;;;;5086737;28;20431;-65
2021/01/16 13:16:44;;;;;;;2.60;0.60;;;5.90;99.90;;;;;;5093454;28;20052;-64
2021/01/16 13:19:15;;;;;;;2.78;1.83;;;5.90;99.90;;;;;;5094121;28;20067;-65
2021/01/16 13:21:50;;;;;;;3.15;1.20;;;5.90;99.90;;;;;;5076795;28;20052;-65
2021/01/16 13:24:26;;;;;;;6.13;1.65;;;6.10;99.90;;;;;;5092602;28;20051;-65
2021/01/16 13:26:56;;;;;;;5.20;2.20;;;6.30;99.90;;;;;;5091839;28;20048;-64
2021/01/16 13:29:32;;;;;;;4.32;1.65;;;6.40;99.90;;;;;;5093306;28;20044;-65
2021/01/16 13:32:07;;;;;;;4.40;1.00;;;6.70;99.90;;;;;;5093305;28;20051;-64